sensor_id;sensor_type;location;lat;lon;timestamp;P1;durP1;ratioP1;P2;durP2;ratioP2
12076;SDS011;12420;42.676;23.262;2023-09-12T00:01:20;6.47;;;3.07;;
12076;SDS011;12420;42.676;23.262;2023-09-12T00:03:46;9.57;;;3.17;;
12076;SDS011;12420;42.676;23.262;2023-09-12T00:06:13;3.17;;;2.87;;
12076;SDS011;12420;42.676;23.262;2023-09-12T00:08:40;5.33;;;3.10;;
12076;SDS011;12420;42.676;23.262;2023-09-12T00:11:08;7.97;;;3.30;;
12076;SDS011;12420;42.676;23.262;2023-09-12T00:13:36;4.00;;;2.80;;
12076;SDS011;12420;42.676;23.262;2023-09-12T00:16:04;3.60;;;2.87;;
12076;SDS011;12420;42.676;23.262;2023-09-12T00:18:32;2.97;;;2.70;;
12076;SDS011;12420;42.676;23.262;2023-09-12T00:21:00;3.53;;;2.90;;
12076;SDS011;12420;42.676;23.262;2023-09-12T00:23:28;5.43;;;3.13;;
12076;SDS011;12420;42.676;23.262;2023-09-12T00:25:54;4.50;;;2.93;;
12076;SDS011;12420;42.676;23.262;2023-09-12T00:28:21;3.33;;;3.03;;
12076;SDS011;12420;42.676;23.262;2023-09-12T00:30:48;3.93;;;2.80;;
12076;SDS011;12420;42.676;23.262;2023-09-12T00:33:15;6.80;;;3.33;;
12076;SDS011;12420;42.676;23.262;2023-09-12T00:35:43;5.77;;;3.20;;
12076;SDS011;12420;42.676;23.262;2023-09-12T00:38:11;4.77;;;3.07;;
12076;SDS011;12420;42.676;23.262;2023-09-12T00:40:37;4.73;;;2.90;;
12076;SDS011;12420;42.676;23.262;2023-09-12T00:43:04;3.07;;;2.87;;
12076;SDS011;12420;42.676;23.262;2023-09-12T00:45:31;4.73;;;3.27;;
12076;SDS011;12420;42.676;23.262;2023-09-12T00:47:58;4.83;;;3.27;;
12076;SDS011;12420;42.676;23.262;2023-09-12T00:50:27;3.50;;;3.17;;
12076;SDS011;12420;42.676;23.262;2023-09-12T00:52:58;3.90;;;3.20;;
12076;SDS011;12420;42.676;23.262;2023-09-12T00:55:26;5.77;;;3.27;;
12076;SDS011;12420;42.676;23.262;2023-09-12T00:57:55;6.07;;;3.17;;
12076;SDS011;12420;42.676;23.262;2023-09-12T01:00:22;4.77;;;3.33;;
12076;SDS011;12420;42.676;23.262;2023-09-12T01:02:49;4.23;;;3.00;;
12076;SDS011;12420;42.676;23.262;2023-09-12T01:05:18;5.33;;;3.10;;
12076;SDS011;12420;42.676;23.262;2023-09-12T01:07:47;5.20;;;3.03;;
12076;SDS011;12420;42.676;23.262;2023-09-12T01:10:16;4.43;;;3.00;;
12076;SDS011;12420;42.676;23.262;2023-09-12T01:12:42;5.03;;;3.37;;
12076;SDS011;12420;42.676;23.262;2023-09-12T01:15:10;4.90;;;3.30;;
12076;SDS011;12420;42.676;23.262;2023-09-12T01:17:39;4.90;;;3.10;;
12076;SDS011;12420;42.676;23.262;2023-09-12T01:20:07;3.90;;;3.10;;
12076;SDS011;12420;42.676;23.262;2023-09-12T01:28:46;8.53;;;3.60;;
12076;SDS011;12420;42.676;23.262;2023-09-12T01:31:14;4.10;;;3.27;;
12076;SDS011;12420;42.676;23.262;2023-09-12T01:33:44;4.77;;;3.47;;
12076;SDS011;12420;42.676;23.262;2023-09-12T01:36:11;13.17;;;3.60;;
12076;SDS011;12420;42.676;23.262;2023-09-12T01:38:37;4.27;;;3.20;;
12076;SDS011;12420;42.676;23.262;2023-09-12T01:41:04;6.40;;;3.60;;
12076;SDS011;12420;42.676;23.262;2023-09-12T01:43:32;5.87;;;3.60;;
12076;SDS011;12420;42.676;23.262;2023-09-12T01:46:05;5.40;;;3.30;;
12076;SDS011;12420;42.676;23.262;2023-09-12T01:48:33;5.47;;;3.40;;
12076;SDS011;12420;42.676;23.262;2023-09-12T01:51:02;4.90;;;3.17;;
12076;SDS011;12420;42.676;23.262;2023-09-12T01:53:30;5.60;;;3.60;;
12076;SDS011;12420;42.676;23.262;2023-09-12T01:55:59;3.83;;;3.30;;
12076;SDS011;12420;42.676;23.262;2023-09-12T01:58:26;5.97;;;3.33;;
12076;SDS011;12420;42.676;23.262;2023-09-12T02:00:53;4.40;;;3.43;;
12076;SDS011;12420;42.676;23.262;2023-09-12T02:03:22;5.20;;;3.30;;
12076;SDS011;12420;42.676;23.262;2023-09-12T02:05:48;3.50;;;3.20;;
12076;SDS011;12420;42.676;23.262;2023-09-12T02:08:15;5.90;;;2.87;;
12076;SDS011;12420;42.676;23.262;2023-09-12T02:10:46;6.10;;;3.40;;
12076;SDS011;12420;42.676;23.262;2023-09-12T02:13:13;4.80;;;3.27;;
12076;SDS011;12420;42.676;23.262;2023-09-12T02:15:40;3.97;;;3.10;;
12076;SDS011;12420;42.676;23.262;2023-09-12T02:18:10;5.00;;;3.40;;
12076;SDS011;12420;42.676;23.262;2023-09-12T02:20:40;4.67;;;3.03;;
12076;SDS011;12420;42.676;23.262;2023-09-12T02:23:10;5.40;;;3.30;;
12076;SDS011;12420;42.676;23.262;2023-09-12T02:25:37;4.70;;;2.97;;
12076;SDS011;12420;42.676;23.262;2023-09-12T02:28:04;4.37;;;3.10;;
12076;SDS011;12420;42.676;23.262;2023-09-12T02:30:31;3.47;;;3.07;;
12076;SDS011;12420;42.676;23.262;2023-09-12T02:32:58;5.40;;;3.20;;
12076;SDS011;12420;42.676;23.262;2023-09-12T02:35:24;7.67;;;3.50;;
12076;SDS011;12420;42.676;23.262;2023-09-12T02:37:55;4.23;;;3.10;;
12076;SDS011;12420;42.676;23.262;2023-09-12T02:40:22;4.10;;;3.30;;
12076;SDS011;12420;42.676;23.262;2023-09-12T02:42:48;4.77;;;3.63;;
12076;SDS011;12420;42.676;23.262;2023-09-12T02:45:15;7.17;;;3.50;;
12076;SDS011;12420;42.676;23.262;2023-09-12T02:47:44;6.70;;;3.50;;
12076;SDS011;12420;42.676;23.262;2023-09-12T02:50:11;5.33;;;3.10;;
12076;SDS011;12420;42.676;23.262;2023-09-12T02:52:38;4.33;;;3.17;;
12076;SDS011;12420;42.676;23.262;2023-09-12T02:55:06;7.03;;;3.33;;
12076;SDS011;12420;42.676;23.262;2023-09-12T02:57:33;3.47;;;3.17;;
12076;SDS011;12420;42.676;23.262;2023-09-12T03:00:00;3.47;;;3.17;;
12076;SDS011;12420;42.676;23.262;2023-09-12T03:02:27;3.53;;;3.23;;
12076;SDS011;12420;42.676;23.262;2023-09-12T03:04:54;7.57;;;3.50;;
12076;SDS011;12420;42.676;23.262;2023-09-12T03:07:21;6.13;;;3.00;;
12076;SDS011;12420;42.676;23.262;2023-09-12T03:09:48;6.80;;;3.37;;
12076;SDS011;12420;42.676;23.262;2023-09-12T03:12:16;5.50;;;3.50;;
12076;SDS011;12420;42.676;23.262;2023-09-12T03:14:43;5.77;;;3.17;;
12076;SDS011;12420;42.676;23.262;2023-09-12T03:17:09;4.63;;;3.37;;
12076;SDS011;12420;42.676;23.262;2023-09-12T03:19:36;4.80;;;3.23;;
12076;SDS011;12420;42.676;23.262;2023-09-12T03:22:03;7.07;;;3.43;;
12076;SDS011;12420;42.676;23.262;2023-09-12T03:24:30;3.47;;;3.17;;
12076;SDS011;12420;42.676;23.262;2023-09-12T03:26:57;4.73;;;3.40;;
12076;SDS011;12420;42.676;23.262;2023-09-12T03:29:25;7.60;;;3.63;;
12076;SDS011;12420;42.676;23.262;2023-09-12T03:31:52;3.60;;;3.30;;
12076;SDS011;12420;42.676;23.262;2023-09-12T03:34:19;6.83;;;3.20;;
12076;SDS011;12420;42.676;23.262;2023-09-12T03:36:45;5.00;;;3.50;;
12076;SDS011;12420;42.676;23.262;2023-09-12T03:39:12;5.17;;;3.50;;
12076;SDS011;12420;42.676;23.262;2023-09-12T03:41:40;7.93;;;3.63;;
12076;SDS011;12420;42.676;23.262;2023-09-12T03:44:06;7.43;;;3.53;;
12076;SDS011;12420;42.676;23.262;2023-09-12T03:46:35;6.87;;;3.40;;
12076;SDS011;12420;42.676;23.262;2023-09-12T03:49:01;8.10;;;3.80;;
12076;SDS011;12420;42.676;23.262;2023-09-12T03:51:28;5.07;;;4.07;;
12076;SDS011;12420;42.676;23.262;2023-09-12T03:53:55;10.47;;;3.80;;
12076;SDS011;12420;42.676;23.262;2023-09-12T03:56:22;5.80;;;4.00;;
12076;SDS011;12420;42.676;23.262;2023-09-12T03:58:48;5.17;;;3.63;;
12076;SDS011;12420;42.676;23.262;2023-09-12T04:01:15;9.20;;;4.00;;
12076;SDS011;12420;42.676;23.262;2023-09-12T04:03:43;9.63;;;4.13;;
12076;SDS011;12420;42.676;23.262;2023-09-12T04:06:12;7.32;;;4.20;;
12076;SDS011;12420;42.676;23.262;2023-09-12T04:08:39;5.33;;;3.93;;
12076;SDS011;12420;42.676;23.262;2023-09-12T04:11:06;6.47;;;4.10;;
12076;SDS011;12420;42.676;23.262;2023-09-12T04:13:32;6.20;;;4.30;;
12076;SDS011;12420;42.676;23.262;2023-09-12T04:15:59;7.67;;;3.77;;
12076;SDS011;12420;42.676;23.262;2023-09-12T04:18:26;10.30;;;4.10;;
12076;SDS011;12420;42.676;23.262;2023-09-12T04:20:54;11.07;;;4.50;;
12076;SDS011;12420;42.676;23.262;2023-09-12T04:23:22;7.47;;;3.60;;
12076;SDS011;12420;42.676;23.262;2023-09-12T04:25:50;11.03;;;4.17;;
12076;SDS011;12420;42.676;23.262;2023-09-12T04:28:17;8.03;;;4.27;;
12076;SDS011;12420;42.676;23.262;2023-09-12T04:30:44;7.67;;;4.63;;
12076;SDS011;12420;42.676;23.262;2023-09-12T04:33:11;18.80;;;5.87;;
12076;SDS011;12420;42.676;23.262;2023-09-12T04:35:37;12.27;;;4.87;;
12076;SDS011;12420;42.676;23.262;2023-09-12T04:38:06;11.57;;;4.63;;
12076;SDS011;12420;42.676;23.262;2023-09-12T04:40:33;9.00;;;4.23;;
12076;SDS011;12420;42.676;23.262;2023-09-12T04:43:00;8.70;;;4.07;;
12076;SDS011;12420;42.676;23.262;2023-09-12T04:45:27;12.83;;;4.60;;
12076;SDS011;12420;42.676;23.262;2023-09-12T04:47:54;10.20;;;4.27;;
12076;SDS011;12420;42.676;23.262;2023-09-12T04:50:20;11.50;;;4.63;;
12076;SDS011;12420;42.676;23.262;2023-09-12T04:52:47;10.83;;;4.20;;
12076;SDS011;12420;42.676;23.262;2023-09-12T04:55:15;12.17;;;4.63;;
12076;SDS011;12420;42.676;23.262;2023-09-12T04:57:42;14.90;;;4.80;;
12076;SDS011;12420;42.676;23.262;2023-09-12T05:00:10;16.97;;;4.87;;
12076;SDS011;12420;42.676;23.262;2023-09-12T05:02:38;8.37;;;4.47;;
12076;SDS011;12420;42.676;23.262;2023-09-12T05:05:05;11.97;;;4.63;;
12076;SDS011;12420;42.676;23.262;2023-09-12T05:07:32;11.70;;;4.80;;
12076;SDS011;12420;42.676;23.262;2023-09-12T05:10:04;18.20;;;4.60;;
12076;SDS011;12420;42.676;23.262;2023-09-12T05:12:33;7.30;;;4.30;;
12076;SDS011;12420;42.676;23.262;2023-09-12T05:14:59;14.07;;;4.10;;
12076;SDS011;12420;42.676;23.262;2023-09-12T05:17:27;11.10;;;4.73;;
12076;SDS011;12420;42.676;23.262;2023-09-12T05:19:55;10.63;;;4.30;;
12076;SDS011;12420;42.676;23.262;2023-09-12T05:22:22;10.53;;;4.50;;
12076;SDS011;12420;42.676;23.262;2023-09-12T05:24:49;8.50;;;4.33;;
12076;SDS011;12420;42.676;23.262;2023-09-12T05:27:17;12.07;;;4.63;;
12076;SDS011;12420;42.676;23.262;2023-09-12T05:29:45;7.23;;;4.10;;
12076;SDS011;12420;42.676;23.262;2023-09-12T05:32:15;12.73;;;4.77;;
12076;SDS011;12420;42.676;23.262;2023-09-12T05:34:41;11.17;;;5.20;;
12076;SDS011;12420;42.676;23.262;2023-09-12T05:37:10;5.67;;;4.00;;
12076;SDS011;12420;42.676;23.262;2023-09-12T05:39:37;7.43;;;4.60;;
12076;SDS011;12420;42.676;23.262;2023-09-12T05:42:04;9.73;;;5.33;;
12076;SDS011;12420;42.676;23.262;2023-09-12T05:44:31;12.30;;;5.10;;
12076;SDS011;12420;42.676;23.262;2023-09-12T05:46:59;13.53;;;4.87;;
12076;SDS011;12420;42.676;23.262;2023-09-12T05:49:27;5.60;;;4.40;;
12076;SDS011;12420;42.676;23.262;2023-09-12T05:51:54;8.27;;;4.90;;
12076;SDS011;12420;42.676;23.262;2023-09-12T05:54:20;11.10;;;5.53;;
12076;SDS011;12420;42.676;23.262;2023-09-12T05:56:51;9.87;;;4.93;;
12076;SDS011;12420;42.676;23.262;2023-09-12T05:59:19;7.63;;;4.67;;
12076;SDS011;12420;42.676;23.262;2023-09-12T06:01:46;10.07;;;5.10;;
12076;SDS011;12420;42.676;23.262;2023-09-12T06:04:16;12.30;;;4.80;;
12076;SDS011;12420;42.676;23.262;2023-09-12T06:06:51;11.13;;;4.67;;
12076;SDS011;12420;42.676;23.262;2023-09-12T06:09:18;9.30;;;4.97;;
12076;SDS011;12420;42.676;23.262;2023-09-12T06:11:44;8.07;;;4.63;;
12076;SDS011;12420;42.676;23.262;2023-09-12T06:14:11;11.60;;;5.73;;
12076;SDS011;12420;42.676;23.262;2023-09-12T06:16:38;13.53;;;5.50;;
12076;SDS011;12420;42.676;23.262;2023-09-12T06:19:06;14.27;;;5.80;;
12076;SDS011;12420;42.676;23.262;2023-09-12T06:21:35;12.53;;;6.23;;
12076;SDS011;12420;42.676;23.262;2023-09-12T06:24:08;11.03;;;5.73;;
12076;SDS011;12420;42.676;23.262;2023-09-12T06:26:37;7.53;;;5.57;;
12076;SDS011;12420;42.676;23.262;2023-09-12T06:29:05;16.40;;;6.63;;
12076;SDS011;12420;42.676;23.262;2023-09-12T06:31:33;11.63;;;6.27;;
12076;SDS011;12420;42.676;23.262;2023-09-12T06:34:00;15.93;;;5.90;;
12076;SDS011;12420;42.676;23.262;2023-09-12T06:36:27;13.03;;;6.40;;
12076;SDS011;12420;42.676;23.262;2023-09-12T06:38:56;13.83;;;7.03;;
12076;SDS011;12420;42.676;23.262;2023-09-12T06:41:23;14.40;;;7.10;;
12076;SDS011;12420;42.676;23.262;2023-09-12T06:43:50;13.20;;;7.57;;
12076;SDS011;12420;42.676;23.262;2023-09-12T06:46:17;13.37;;;7.50;;
12076;SDS011;12420;42.676;23.262;2023-09-12T06:48:44;12.20;;;7.80;;
12076;SDS011;12420;42.676;23.262;2023-09-12T06:51:10;14.10;;;7.63;;
12076;SDS011;12420;42.676;23.262;2023-09-12T06:53:38;12.37;;;7.20;;
12076;SDS011;12420;42.676;23.262;2023-09-12T06:56:06;16.77;;;7.23;;
12076;SDS011;12420;42.676;23.262;2023-09-12T06:58:33;13.80;;;7.47;;
12076;SDS011;12420;42.676;23.262;2023-09-12T07:01:03;17.57;;;6.70;;
12076;SDS011;12420;42.676;23.262;2023-09-12T07:03:31;7.57;;;5.40;;
12076;SDS011;12420;42.676;23.262;2023-09-12T07:05:59;6.20;;;4.73;;
12076;SDS011;12420;42.676;23.262;2023-09-12T07:08:26;9.17;;;5.53;;
12076;SDS011;12420;42.676;23.262;2023-09-12T07:10:53;13.73;;;9.13;;
12076;SDS011;12420;42.676;23.262;2023-09-12T07:13:21;10.67;;;5.23;;
12076;SDS011;12420;42.676;23.262;2023-09-12T07:15:49;15.73;;;5.23;;
12076;SDS011;12420;42.676;23.262;2023-09-12T07:18:15;9.17;;;5.10;;
12076;SDS011;12420;42.676;23.262;2023-09-12T07:20:43;7.77;;;4.93;;
12076;SDS011;12420;42.676;23.262;2023-09-12T07:23:10;10.30;;;4.80;;
12076;SDS011;12420;42.676;23.262;2023-09-12T07:25:37;14.07;;;5.47;;
12076;SDS011;12420;42.676;23.262;2023-09-12T07:28:05;8.37;;;4.33;;
12076;SDS011;12420;42.676;23.262;2023-09-12T07:30:36;9.00;;;4.53;;
12076;SDS011;12420;42.676;23.262;2023-09-12T07:33:04;12.13;;;5.03;;
12076;SDS011;12420;42.676;23.262;2023-09-12T07:35:31;9.10;;;5.20;;
12076;SDS011;12420;42.676;23.262;2023-09-12T07:37:58;8.40;;;5.00;;
12076;SDS011;12420;42.676;23.262;2023-09-12T07:40:25;12.93;;;5.27;;
12076;SDS011;12420;42.676;23.262;2023-09-12T07:42:52;13.20;;;5.03;;
12076;SDS011;12420;42.676;23.262;2023-09-12T07:45:22;10.27;;;4.43;;
12076;SDS011;12420;42.676;23.262;2023-09-12T07:47:50;10.77;;;4.60;;
12076;SDS011;12420;42.676;23.262;2023-09-12T07:50:20;8.20;;;4.40;;
12076;SDS011;12420;42.676;23.262;2023-09-12T07:52:46;8.20;;;4.70;;
12076;SDS011;12420;42.676;23.262;2023-09-12T07:55:13;8.63;;;4.27;;
12076;SDS011;12420;42.676;23.262;2023-09-12T07:57:40;10.93;;;4.60;;
12076;SDS011;12420;42.676;23.262;2023-09-12T08:00:10;8.50;;;5.10;;
12076;SDS011;12420;42.676;23.262;2023-09-12T08:02:37;11.17;;;4.43;;
12076;SDS011;12420;42.676;23.262;2023-09-12T08:05:06;9.97;;;4.53;;
12076;SDS011;12420;42.676;23.262;2023-09-12T08:07:33;9.23;;;3.97;;
12076;SDS011;12420;42.676;23.262;2023-09-12T08:10:01;9.50;;;4.80;;
12076;SDS011;12420;42.676;23.262;2023-09-12T08:12:28;8.27;;;4.90;;
12076;SDS011;12420;42.676;23.262;2023-09-12T08:14:54;11.13;;;4.37;;
12076;SDS011;12420;42.676;23.262;2023-09-12T08:17:22;26.70;;;6.03;;
12076;SDS011;12420;42.676;23.262;2023-09-12T08:19:49;12.83;;;5.77;;
12076;SDS011;12420;42.676;23.262;2023-09-12T08:22:17;9.63;;;4.60;;
12076;SDS011;12420;42.676;23.262;2023-09-12T08:24:45;13.30;;;4.93;;
12076;SDS011;12420;42.676;23.262;2023-09-12T08:27:13;7.77;;;4.00;;
12076;SDS011;12420;42.676;23.262;2023-09-12T08:29:40;8.10;;;4.27;;
12076;SDS011;12420;42.676;23.262;2023-09-12T08:32:10;8.33;;;4.10;;
12076;SDS011;12420;42.676;23.262;2023-09-12T08:34:40;8.80;;;4.13;;
12076;SDS011;12420;42.676;23.262;2023-09-12T08:37:06;10.13;;;4.82;;
12076;SDS011;12420;42.676;23.262;2023-09-12T08:39:42;11.63;;;5.10;;
12076;SDS011;12420;42.676;23.262;2023-09-12T08:42:12;9.80;;;5.43;;
12076;SDS011;12420;42.676;23.262;2023-09-12T08:44:39;30.20;;;5.78;;
12076;SDS011;12420;42.676;23.262;2023-09-12T08:47:08;8.07;;;4.63;;
12076;SDS011;12420;42.676;23.262;2023-09-12T08:49:36;13.17;;;4.57;;
12076;SDS011;12420;42.676;23.262;2023-09-12T08:52:04;10.90;;;4.63;;
12076;SDS011;12420;42.676;23.262;2023-09-12T08:54:31;12.10;;;4.90;;
12076;SDS011;12420;42.676;23.262;2023-09-12T08:56:59;15.17;;;5.20;;
12076;SDS011;12420;42.676;23.262;2023-09-12T08:59:28;14.03;;;4.90;;
12076;SDS011;12420;42.676;23.262;2023-09-12T09:01:56;10.25;;;4.60;;
12076;SDS011;12420;42.676;23.262;2023-09-12T09:04:23;10.47;;;4.33;;
12076;SDS011;12420;42.676;23.262;2023-09-12T09:06:53;15.98;;;6.53;;
12076;SDS011;12420;42.676;23.262;2023-09-12T09:09:22;9.03;;;4.20;;
12076;SDS011;12420;42.676;23.262;2023-09-12T09:11:51;8.07;;;3.80;;
12076;SDS011;12420;42.676;23.262;2023-09-12T09:14:20;6.83;;;4.30;;
12076;SDS011;12420;42.676;23.262;2023-09-12T09:16:48;8.60;;;3.78;;
12076;SDS011;12420;42.676;23.262;2023-09-12T09:19:15;14.97;;;4.40;;
12076;SDS011;12420;42.676;23.262;2023-09-12T09:21:43;9.00;;;4.23;;
12076;SDS011;12420;42.676;23.262;2023-09-12T09:24:11;6.77;;;3.80;;
12076;SDS011;12420;42.676;23.262;2023-09-12T09:26:43;10.40;;;3.30;;
12076;SDS011;12420;42.676;23.262;2023-09-12T09:29:13;8.70;;;3.72;;
12076;SDS011;12420;42.676;23.262;2023-09-12T09:31:43;7.07;;;3.60;;
12076;SDS011;12420;42.676;23.262;2023-09-12T09:34:10;11.00;;;3.53;;
12076;SDS011;12420;42.676;23.262;2023-09-12T09:36:40;10.23;;;3.92;;
12076;SDS011;12420;42.676;23.262;2023-09-12T09:39:09;7.50;;;3.70;;
12076;SDS011;12420;42.676;23.262;2023-09-12T09:41:36;8.20;;;4.10;;
12076;SDS011;12420;42.676;23.262;2023-09-12T09:44:04;4.68;;;3.65;;
12076;SDS011;12420;42.676;23.262;2023-09-12T09:46:31;6.38;;;4.00;;
12076;SDS011;12420;42.676;23.262;2023-09-12T09:49:00;10.70;;;4.10;;
12076;SDS011;12420;42.676;23.262;2023-09-12T09:51:27;5.20;;;3.63;;
12076;SDS011;12420;42.676;23.262;2023-09-12T09:53:56;11.68;;;3.83;;
12076;SDS011;12420;42.676;23.262;2023-09-12T09:56:23;10.15;;;3.70;;
12076;SDS011;12420;42.676;23.262;2023-09-12T09:58:52;5.90;;;3.50;;
12076;SDS011;12420;42.676;23.262;2023-09-12T10:01:20;5.90;;;3.58;;
12076;SDS011;12420;42.676;23.262;2023-09-12T10:03:48;9.75;;;3.60;;
12076;SDS011;12420;42.676;23.262;2023-09-12T10:06:18;9.25;;;4.07;;
12076;SDS011;12420;42.676;23.262;2023-09-12T10:08:47;8.02;;;3.88;;
12076;SDS011;12420;42.676;23.262;2023-09-12T10:11:16;7.10;;;3.90;;
12076;SDS011;12420;42.676;23.262;2023-09-12T10:13:46;6.22;;;3.55;;
12076;SDS011;12420;42.676;23.262;2023-09-12T10:16:16;7.25;;;3.80;;
12076;SDS011;12420;42.676;23.262;2023-09-12T10:18:44;9.30;;;3.90;;
12076;SDS011;12420;42.676;23.262;2023-09-12T10:21:16;9.85;;;3.90;;
12076;SDS011;12420;42.676;23.262;2023-09-12T10:23:53;12.25;;;3.95;;
12076;SDS011;12420;42.676;23.262;2023-09-12T10:26:24;13.45;;;3.88;;
12076;SDS011;12420;42.676;23.262;2023-09-12T10:28:51;5.90;;;3.38;;
12076;SDS011;12420;42.676;23.262;2023-09-12T10:31:18;6.68;;;4.22;;
12076;SDS011;12420;42.676;23.262;2023-09-12T10:33:45;4.93;;;3.63;;
12076;SDS011;12420;42.676;23.262;2023-09-12T10:36:15;8.50;;;3.85;;
12076;SDS011;12420;42.676;23.262;2023-09-12T10:38:48;5.63;;;4.38;;
12076;SDS011;12420;42.676;23.262;2023-09-12T10:41:17;6.10;;;4.03;;
12076;SDS011;12420;42.676;23.262;2023-09-12T10:43:46;8.32;;;3.88;;
12076;SDS011;12420;42.676;23.262;2023-09-12T10:46:17;6.00;;;3.60;;
12076;SDS011;12420;42.676;23.262;2023-09-12T10:48:44;8.82;;;4.20;;
12076;SDS011;12420;42.676;23.262;2023-09-12T10:51:11;9.32;;;3.72;;
12076;SDS011;12420;42.676;23.262;2023-09-12T10:53:44;7.53;;;3.75;;
12076;SDS011;12420;42.676;23.262;2023-09-12T10:56:15;7.13;;;3.90;;
12076;SDS011;12420;42.676;23.262;2023-09-12T11:01:40;8.98;;;3.58;;
12076;SDS011;12420;42.676;23.262;2023-09-12T11:06:58;5.50;;;3.63;;
12076;SDS011;12420;42.676;23.262;2023-09-12T11:09:26;6.03;;;3.70;;
12076;SDS011;12420;42.676;23.262;2023-09-12T11:11:54;6.20;;;3.67;;
12076;SDS011;12420;42.676;23.262;2023-09-12T11:14:23;6.78;;;3.63;;
12076;SDS011;12420;42.676;23.262;2023-09-12T11:19:50;6.70;;;4.18;;
12076;SDS011;12420;42.676;23.262;2023-09-12T11:22:25;7.80;;;3.80;;
12076;SDS011;12420;42.676;23.262;2023-09-12T11:24:54;7.80;;;3.67;;
12076;SDS011;12420;42.676;23.262;2023-09-12T11:27:22;5.28;;;3.50;;
12076;SDS011;12420;42.676;23.262;2023-09-12T11:29:50;3.58;;;3.28;;
12076;SDS011;12420;42.676;23.262;2023-09-12T11:35:04;6.25;;;3.97;;
12076;SDS011;12420;42.676;23.262;2023-09-12T11:37:32;10.68;;;3.80;;
12076;SDS011;12420;42.676;23.262;2023-09-12T11:40:03;11.70;;;3.70;;
12076;SDS011;12420;42.676;23.262;2023-09-12T11:42:42;5.85;;;4.07;;
12076;SDS011;12420;42.676;23.262;2023-09-12T11:45:11;9.05;;;3.63;;
12076;SDS011;12420;42.676;23.262;2023-09-12T11:47:39;5.28;;;3.25;;
12076;SDS011;12420;42.676;23.262;2023-09-12T11:50:07;4.20;;;3.40;;
12076;SDS011;12420;42.676;23.262;2023-09-12T11:52:35;10.32;;;3.58;;
12076;SDS011;12420;42.676;23.262;2023-09-12T11:55:05;5.97;;;3.25;;
12076;SDS011;12420;42.676;23.262;2023-09-12T11:57:32;11.52;;;3.78;;
12076;SDS011;12420;42.676;23.262;2023-09-12T12:00:02;7.43;;;3.28;;
12076;SDS011;12420;42.676;23.262;2023-09-12T12:02:33;7.40;;;3.47;;
12076;SDS011;12420;42.676;23.262;2023-09-12T12:05:00;7.00;;;3.78;;
12076;SDS011;12420;42.676;23.262;2023-09-12T12:07:29;8.27;;;3.70;;
12076;SDS011;12420;42.676;23.262;2023-09-12T12:09:56;18.52;;;4.30;;
12076;SDS011;12420;42.676;23.262;2023-09-12T12:12:24;7.82;;;3.65;;
12076;SDS011;12420;42.676;23.262;2023-09-12T12:14:51;8.65;;;3.80;;
12076;SDS011;12420;42.676;23.262;2023-09-12T12:17:18;14.38;;;4.00;;
12076;SDS011;12420;42.676;23.262;2023-09-12T12:19:45;7.13;;;3.40;;
12076;SDS011;12420;42.676;23.262;2023-09-12T12:22:12;7.25;;;3.42;;
12076;SDS011;12420;42.676;23.262;2023-09-12T12:24:39;5.18;;;3.13;;
12076;SDS011;12420;42.676;23.262;2023-09-12T12:27:07;14.40;;;4.25;;
12076;SDS011;12420;42.676;23.262;2023-09-12T12:29:38;6.72;;;3.50;;
12076;SDS011;12420;42.676;23.262;2023-09-12T12:32:05;5.22;;;3.60;;
12076;SDS011;12420;42.676;23.262;2023-09-12T12:34:34;6.88;;;3.85;;
12076;SDS011;12420;42.676;23.262;2023-09-12T12:37:02;8.32;;;3.97;;
12076;SDS011;12420;42.676;23.262;2023-09-12T12:39:29;8.75;;;4.00;;
12076;SDS011;12420;42.676;23.262;2023-09-12T12:41:57;6.25;;;3.58;;
12076;SDS011;12420;42.676;23.262;2023-09-12T12:44:32;5.85;;;3.92;;
12076;SDS011;12420;42.676;23.262;2023-09-12T12:47:08;11.68;;;3.78;;
12076;SDS011;12420;42.676;23.262;2023-09-12T12:49:37;4.78;;;3.10;;
12076;SDS011;12420;42.676;23.262;2023-09-12T12:52:05;6.88;;;3.40;;
12076;SDS011;12420;42.676;23.262;2023-09-12T12:54:32;12.18;;;3.83;;
12076;SDS011;12420;42.676;23.262;2023-09-12T12:56:59;4.97;;;3.63;;
12076;SDS011;12420;42.676;23.262;2023-09-12T12:59:26;5.63;;;3.50;;
12076;SDS011;12420;42.676;23.262;2023-09-12T13:01:54;8.25;;;3.70;;
12076;SDS011;12420;42.676;23.262;2023-09-12T13:04:23;10.98;;;3.38;;
12076;SDS011;12420;42.676;23.262;2023-09-12T13:06:50;5.75;;;3.72;;
12076;SDS011;12420;42.676;23.262;2023-09-12T13:09:17;6.25;;;3.30;;
12076;SDS011;12420;42.676;23.262;2023-09-12T13:11:43;5.13;;;3.42;;
12076;SDS011;12420;42.676;23.262;2023-09-12T13:14:12;5.93;;;3.58;;
12076;SDS011;12420;42.676;23.262;2023-09-12T13:16:39;7.22;;;3.72;;
12076;SDS011;12420;42.676;23.262;2023-09-12T13:19:06;6.03;;;3.20;;
12076;SDS011;12420;42.676;23.262;2023-09-12T13:21:34;9.63;;;3.53;;
12076;SDS011;12420;42.676;23.262;2023-09-12T13:24:01;7.65;;;3.67;;
12076;SDS011;12420;42.676;23.262;2023-09-12T13:26:28;11.30;;;3.70;;
12076;SDS011;12420;42.676;23.262;2023-09-12T13:28:56;7.00;;;3.10;;
12076;SDS011;12420;42.676;23.262;2023-09-12T13:31:23;11.65;;;3.75;;
12076;SDS011;12420;42.676;23.262;2023-09-12T13:33:50;7.85;;;3.38;;
12076;SDS011;12420;42.676;23.262;2023-09-12T13:36:16;7.43;;;3.50;;
12076;SDS011;12420;42.676;23.262;2023-09-12T13:38:45;4.25;;;3.55;;
12076;SDS011;12420;42.676;23.262;2023-09-12T13:41:13;4.65;;;3.15;;
12076;SDS011;12420;42.676;23.262;2023-09-12T13:43:41;7.53;;;3.13;;
12076;SDS011;12420;42.676;23.262;2023-09-12T13:46:10;6.75;;;3.30;;
12076;SDS011;12420;42.676;23.262;2023-09-12T13:48:37;6.30;;;3.50;;
12076;SDS011;12420;42.676;23.262;2023-09-12T13:51:04;9.07;;;3.30;;
12076;SDS011;12420;42.676;23.262;2023-09-12T13:53:31;13.52;;;4.03;;
12076;SDS011;12420;42.676;23.262;2023-09-12T13:55:59;8.93;;;3.17;;
12076;SDS011;12420;42.676;23.262;2023-09-12T13:58:27;13.65;;;3.65;;
12076;SDS011;12420;42.676;23.262;2023-09-12T14:00:53;9.60;;;3.65;;
12076;SDS011;12420;42.676;23.262;2023-09-12T14:03:20;7.75;;;3.00;;
12076;SDS011;12420;42.676;23.262;2023-09-12T14:05:47;5.18;;;3.83;;
12076;SDS011;12420;42.676;23.262;2023-09-12T14:08:13;6.10;;;3.70;;
12076;SDS011;12420;42.676;23.262;2023-09-12T14:10:40;8.27;;;3.30;;
12076;SDS011;12420;42.676;23.262;2023-09-12T14:13:08;10.25;;;3.83;;
12076;SDS011;12420;42.676;23.262;2023-09-12T14:15:35;6.70;;;4.00;;
12076;SDS011;12420;42.676;23.262;2023-09-12T14:18:02;8.02;;;3.80;;
12076;SDS011;12420;42.676;23.262;2023-09-12T14:20:29;4.22;;;3.45;;
12076;SDS011;12420;42.676;23.262;2023-09-12T14:22:56;7.15;;;4.05;;
12076;SDS011;12420;42.676;23.262;2023-09-12T14:25:23;6.95;;;3.83;;
12076;SDS011;12420;42.676;23.262;2023-09-12T14:27:50;7.32;;;3.47;;
12076;SDS011;12420;42.676;23.262;2023-09-12T14:30:18;4.35;;;3.40;;
12076;SDS011;12420;42.676;23.262;2023-09-12T14:32:47;7.25;;;3.75;;
12076;SDS011;12420;42.676;23.262;2023-09-12T14:35:14;7.15;;;3.50;;
12076;SDS011;12420;42.676;23.262;2023-09-12T14:37:41;7.47;;;3.55;;
12076;SDS011;12420;42.676;23.262;2023-09-12T14:40:08;7.57;;;3.60;;
12076;SDS011;12420;42.676;23.262;2023-09-12T14:42:36;11.52;;;3.78;;
12076;SDS011;12420;42.676;23.262;2023-09-12T14:45:03;8.63;;;3.80;;
12076;SDS011;12420;42.676;23.262;2023-09-12T14:47:32;5.82;;;3.55;;
12076;SDS011;12420;42.676;23.262;2023-09-12T14:49:59;8.90;;;3.63;;
12076;SDS011;12420;42.676;23.262;2023-09-12T14:52:26;13.30;;;4.00;;